createdAt,value
2018-02-10T13:18:30.408Z,12.90
2018-02-10T13:23:22.141Z,9.00
2018-02-10T13:28:13.137Z,8.80
2018-02-10T13:33:04.793Z,7.20
2018-02-10T13:37:55.809Z,7.10
2018-02-10T13:42:46.732Z,6.80
2018-02-10T13:47:37.751Z,6.50
2018-02-10T13:52:28.666Z,6.20
2018-02-10T13:57:19.576Z,6.10
2018-02-10T14:02:10.544Z,5.90
2018-02-10T14:07:01.505Z,5.80
2018-02-10T14:11:52.417Z,5.80
2018-02-10T14:16:43.584Z,5.70
2018-02-10T14:21:34.456Z,5.60
2018-02-10T14:26:25.418Z,5.50
2018-02-10T14:31:16.426Z,5.40
2018-02-10T14:36:07.432Z,5.30
2018-02-10T14:40:58.310Z,5.20
2018-02-10T14:45:49.260Z,5.10
2018-02-10T14:50:40.196Z,5.00
2018-02-10T14:55:31.133Z,4.90
2018-02-10T15:00:22.147Z,4.80
2018-02-10T15:05:13.148Z,4.70
2018-02-10T15:10:04.066Z,4.60
2018-02-10T15:14:54.974Z,4.40
2018-02-10T15:19:45.904Z,4.30
2018-02-10T15:24:36.809Z,4.20
2018-02-10T15:29:40.147Z,4.10
2018-02-10T15:34:34.003Z,4.00
2018-02-10T15:39:24.928Z,3.80
2018-02-10T15:44:15.823Z,3.70
2018-02-10T15:49:06.772Z,3.60
2018-02-10T15:53:57.666Z,3.50
2018-02-10T15:58:48.596Z,3.40
2018-02-10T16:03:39.485Z,3.30
2018-02-10T16:08:30.432Z,3.20
2018-02-10T16:13:21.335Z,3.10
2018-02-10T16:18:12.300Z,3.00
2018-02-10T16:23:03.185Z,2.90
2018-02-10T16:27:54.096Z,2.80
2018-02-10T16:32:45.014Z,2.70
2018-02-10T16:37:35.955Z,2.60
2018-02-10T16:42:26.856Z,2.60
2018-02-10T16:47:17.749Z,2.50
2018-02-10T16:52:08.634Z,2.50
2018-02-10T16:56:59.540Z,2.40
2018-02-10T17:01:50.422Z,2.40
2018-02-10T17:06:41.630Z,2.40
2018-02-10T17:11:32.518Z,2.30
2018-02-10T17:16:23.408Z,2.30
2018-02-10T17:21:14.276Z,2.20
2018-02-10T17:26:05.901Z,2.20
2018-02-10T17:30:57.542Z,2.10
2018-02-10T17:35:49.169Z,2.10
2018-02-10T17:40:40.781Z,2.10
2018-02-10T17:45:31.672Z,2.00
2018-02-10T17:50:22.588Z,2.00
2018-02-10T17:55:13.478Z,2.00
2018-02-10T18:00:04.377Z,2.00
2018-02-10T18:04:56.004Z,1.90
2018-02-10T18:09:46.887Z,1.90
2018-02-10T18:14:37.761Z,1.90
2018-02-10T18:19:28.635Z,1.90
2018-02-10T18:24:19.529Z,1.80
2018-02-10T18:29:10.412Z,1.80
2018-02-10T18:34:01.280Z,1.80
2018-02-10T18:38:52.182Z,1.80
2018-02-10T18:43:43.116Z,1.80
2018-02-10T18:48:34.008Z,1.80
2018-02-10T18:53:24.902Z,1.70
2018-02-10T18:58:15.805Z,1.70
2018-02-10T19:03:07.459Z,1.70
2018-02-10T19:07:58.348Z,1.70
2018-02-10T19:12:49.277Z,1.60
2018-02-10T19:17:40.168Z,1.60
2018-02-10T19:22:31.085Z,1.60
2018-02-10T19:27:21.968Z,1.60
2018-02-10T19:32:12.855Z,1.60
2018-02-10T19:37:04.476Z,1.60
2018-02-10T19:41:55.360Z,1.50
2018-02-10T19:46:46.270Z,1.50
2018-02-10T19:51:37.192Z,1.50
2018-02-10T19:56:28.100Z,1.50
2018-02-10T20:01:18.985Z,1.50
2018-02-10T20:06:10.608Z,1.40
2018-02-10T20:11:02.226Z,1.40
2018-02-10T20:15:53.120Z,1.40
2018-02-10T20:20:44.049Z,1.40
2018-02-10T20:25:34.924Z,1.40
2018-02-10T20:30:25.838Z,1.40
2018-02-10T20:35:16.728Z,1.30
2018-02-10T20:40:07.623Z,1.40
2018-02-10T20:44:58.513Z,1.40
2018-02-10T20:49:49.418Z,1.40
2018-02-10T20:54:40.304Z,1.40
2018-02-10T20:59:31.934Z,1.30
2018-02-10T21:04:23.552Z,1.30
2018-02-10T21:09:14.440Z,1.30
2018-02-10T21:14:05.366Z,1.30
2018-02-10T21:18:56.262Z,1.30
2018-02-10T21:23:47.157Z,1.30
2018-02-10T21:28:38.779Z,1.20
2018-02-10T21:33:30.401Z,1.20
2018-02-10T21:38:21.289Z,1.20
2018-02-10T21:43:12.188Z,1.20
2018-02-10T21:48:03.091Z,1.20
2018-02-10T21:52:53.984Z,1.20
2018-02-10T21:57:45.609Z,1.10
2018-02-10T22:02:36.519Z,1.10
2018-02-10T22:07:27.396Z,1.10
2018-02-10T22:12:18.296Z,1.10
2018-02-10T22:17:09.215Z,1.10
2018-02-10T22:22:00.109Z,1.10
2018-02-10T22:26:51.728Z,1.00
2018-02-10T22:31:42.715Z,1.00
2018-02-10T22:36:33.593Z,1.00
2018-02-10T22:41:25.216Z,1.00
2018-02-10T22:46:16.845Z,1.00
2018-02-10T22:51:07.726Z,1.00
2018-02-10T22:55:58.621Z,1.00
2018-02-10T23:00:49.533Z,1.00
2018-02-10T23:05:40.425Z,1.00
2018-02-10T23:10:32.069Z,1.00
2018-02-10T23:15:23.770Z,1.00
2018-02-10T23:20:14.676Z,1.00
2018-02-10T23:25:05.580Z,1.00
2018-02-10T23:29:56.478Z,1.00
2018-02-10T23:34:47.374Z,1.00
2018-02-10T23:39:39.010Z,1.00
2018-02-10T23:44:29.918Z,1.00
2018-02-10T23:49:21.592Z,1.00
2018-02-10T23:54:12.467Z,1.00
2018-02-10T23:59:03.402Z,1.00
